sensor_id;sensor_type;location;lat;lon;timestamp;pressure;altitude;pressure_sealevel;temperature;humidity
74524;BME280;63074;44.696;10.358;2023-11-21T00:01:58;99423.28;;;17.35;100.00
74524;BME280;63074;44.696;10.358;2023-11-21T00:04:25;99415.00;;;17.45;100.00
74524;BME280;63074;44.696;10.358;2023-11-21T00:06:51;99416.97;;;17.39;100.00
74524;BME280;63074;44.696;10.358;2023-11-21T00:09:17;99407.44;;;17.42;100.00
74524;BME280;63074;44.696;10.358;2023-11-21T00:11:44;99417.47;;;17.60;100.00
74524;BME280;63074;44.696;10.358;2023-11-21T00:14:14;99422.25;;;17.68;100.00
74524;BME280;63074;44.696;10.358;2023-11-21T00:16:43;99422.75;;;17.70;100.00
74524;BME280;63074;44.696;10.358;2023-11-21T00:19:09;99413.38;;;17.44;100.00
74524;BME280;63074;44.696;10.358;2023-11-21T00:21:36;99407.50;;;17.37;100.00
74524;BME280;63074;44.696;10.358;2023-11-21T00:24:02;99398.16;;;17.29;100.00
74524;BME280;63074;44.696;10.358;2023-11-21T00:26:28;99388.69;;;17.27;100.00
74524;BME280;63074;44.696;10.358;2023-11-21T00:28:54;99375.63;;;17.10;100.00
74524;BME280;63074;44.696;10.358;2023-11-21T00:31:20;99350.31;;;17.14;100.00
74524;BME280;63074;44.696;10.358;2023-11-21T00:33:46;99348.69;;;17.13;100.00
74524;BME280;63074;44.696;10.358;2023-11-21T00:36:13;99342.78;;;16.74;100.00
74524;BME280;63074;44.696;10.358;2023-11-21T00:38:39;99327.53;;;16.54;100.00
74524;BME280;63074;44.696;10.358;2023-11-21T00:41:06;99312.66;;;16.51;100.00
74524;BME280;63074;44.696;10.358;2023-11-21T00:43:32;99305.69;;;16.03;100.00
74524;BME280;63074;44.696;10.358;2023-11-21T00:45:59;99293.88;;;15.41;100.00
74524;BME280;63074;44.696;10.358;2023-11-21T00:48:26;99306.22;;;15.81;100.00
74524;BME280;63074;44.696;10.358;2023-11-21T00:50:52;99311.56;;;16.34;100.00
74524;BME280;63074;44.696;10.358;2023-11-21T00:53:18;99312.41;;;16.91;100.00
74524;BME280;63074;44.696;10.358;2023-11-21T00:55:44;99335.91;;;16.58;100.00
74524;BME280;63074;44.696;10.358;2023-11-21T00:58:10;99342.78;;;16.93;100.00
74524;BME280;63074;44.696;10.358;2023-11-21T01:00:36;99360.03;;;16.16;100.00
74524;BME280;63074;44.696;10.358;2023-11-21T01:03:05;99359.50;;;16.14;100.00
74524;BME280;63074;44.696;10.358;2023-11-21T01:05:33;99363.06;;;15.86;100.00
74524;BME280;63074;44.696;10.358;2023-11-21T01:08:00;99360.78;;;15.69;100.00
74524;BME280;63074;44.696;10.358;2023-11-21T01:10:26;99354.84;;;15.91;100.00
74524;BME280;63074;44.696;10.358;2023-11-21T01:12:52;99358.19;;;16.54;100.00
74524;BME280;63074;44.696;10.358;2023-11-21T01:15:19;99366.47;;;16.68;100.00
74524;BME280;63074;44.696;10.358;2023-11-21T01:17:45;99370.44;;;16.95;100.00
74524;BME280;63074;44.696;10.358;2023-11-21T01:20:11;99367.09;;;17.16;100.00
74524;BME280;63074;44.696;10.358;2023-11-21T01:22:38;99362.66;;;16.88;100.00
74524;BME280;63074;44.696;10.358;2023-11-21T01:25:05;99359.47;;;16.81;100.00
74524;BME280;63074;44.696;10.358;2023-11-21T01:27:33;99352.91;;;16.87;100.00
74524;BME280;63074;44.696;10.358;2023-11-21T01:30:01;99357.91;;;16.56;100.00
74524;BME280;63074;44.696;10.358;2023-11-21T01:32:28;99363.88;;;16.34;100.00
74524;BME280;63074;44.696;10.358;2023-11-21T01:34:54;99371.66;;;16.65;100.00
74524;BME280;63074;44.696;10.358;2023-11-21T01:37:24;99355.22;;;16.32;100.00
74524;BME280;63074;44.696;10.358;2023-11-21T01:39:54;99371.56;;;15.74;100.00
74524;BME280;63074;44.696;10.358;2023-11-21T01:42:21;99371.94;;;15.92;100.00
74524;BME280;63074;44.696;10.358;2023-11-21T01:44:47;99365.78;;;15.86;100.00
74524;BME280;63074;44.696;10.358;2023-11-21T01:47:14;99368.00;;;16.50;100.00
74524;BME280;63074;44.696;10.358;2023-11-21T01:49:44;99367.56;;;16.86;100.00
74524;BME280;63074;44.696;10.358;2023-11-21T01:52:11;99354.63;;;17.15;100.00
74524;BME280;63074;44.696;10.358;2023-11-21T01:54:38;99356.69;;;16.86;100.00
74524;BME280;63074;44.696;10.358;2023-11-21T01:57:05;99356.44;;;17.39;100.00
74524;BME280;63074;44.696;10.358;2023-11-21T01:59:36;99360.84;;;17.35;100.00
74524;BME280;63074;44.696;10.358;2023-11-21T02:02:11;99365.06;;;17.08;100.00
74524;BME280;63074;44.696;10.358;2023-11-21T02:04:38;99371.59;;;17.07;100.00
74524;BME280;63074;44.696;10.358;2023-11-21T02:07:05;99381.94;;;17.24;100.00
74524;BME280;63074;44.696;10.358;2023-11-21T02:09:34;99389.59;;;17.03;100.00
74524;BME280;63074;44.696;10.358;2023-11-21T02:12:01;99387.00;;;17.12;100.00
74524;BME280;63074;44.696;10.358;2023-11-21T02:14:27;99369.75;;;16.84;100.00
74524;BME280;63074;44.696;10.358;2023-11-21T02:16:55;99355.00;;;17.28;100.00
74524;BME280;63074;44.696;10.358;2023-11-21T02:19:23;99356.03;;;17.13;100.00
74524;BME280;63074;44.696;10.358;2023-11-21T02:21:52;99351.06;;;17.34;100.00
74524;BME280;63074;44.696;10.358;2023-11-21T02:24:22;99351.94;;;16.78;100.00
74524;BME280;63074;44.696;10.358;2023-11-21T02:26:51;99351.28;;;16.86;100.00
74524;BME280;63074;44.696;10.358;2023-11-21T02:29:18;99336.22;;;17.12;100.00
74524;BME280;63074;44.696;10.358;2023-11-21T02:31:51;99350.16;;;17.25;100.00
74524;BME280;63074;44.696;10.358;2023-11-21T02:34:18;99344.38;;;17.12;100.00
74524;BME280;63074;44.696;10.358;2023-11-21T02:36:44;99348.28;;;16.87;100.00
74524;BME280;63074;44.696;10.358;2023-11-21T02:39:11;99346.47;;;16.16;100.00
74524;BME280;63074;44.696;10.358;2023-11-21T02:41:40;99338.41;;;15.88;100.00
74524;BME280;63074;44.696;10.358;2023-11-21T02:44:07;99348.81;;;15.41;100.00
74524;BME280;63074;44.696;10.358;2023-11-21T02:46:34;99337.88;;;15.85;100.00
74524;BME280;63074;44.696;10.358;2023-11-21T02:49:03;99344.06;;;16.15;100.00
74524;BME280;63074;44.696;10.358;2023-11-21T02:51:32;99336.00;;;16.29;100.00
74524;BME280;63074;44.696;10.358;2023-11-21T02:53:59;99337.69;;;16.25;100.00
74524;BME280;63074;44.696;10.358;2023-11-21T02:56:26;99339.94;;;15.94;100.00
74524;BME280;63074;44.696;10.358;2023-11-21T02:58:56;99333.03;;;15.82;100.00
74524;BME280;63074;44.696;10.358;2023-11-21T03:01:22;99329.91;;;16.42;100.00
74524;BME280;63074;44.696;10.358;2023-11-21T03:03:50;99322.81;;;16.65;100.00
74524;BME280;63074;44.696;10.358;2023-11-21T03:06:19;99324.47;;;16.18;100.00
74524;BME280;63074;44.696;10.358;2023-11-21T03:08:46;99323.06;;;15.78;100.00
74524;BME280;63074;44.696;10.358;2023-11-21T03:11:12;99328.91;;;16.33;100.00
74524;BME280;63074;44.696;10.358;2023-11-21T03:13:40;99315.31;;;16.38;100.00
74524;BME280;63074;44.696;10.358;2023-11-21T03:16:11;99305.66;;;13.63;100.00
74524;BME280;63074;44.696;10.358;2023-11-21T03:18:38;99308.69;;;13.31;100.00
74524;BME280;63074;44.696;10.358;2023-11-21T03:21:05;99310.31;;;13.27;100.00
74524;BME280;63074;44.696;10.358;2023-11-21T03:23:32;99300.84;;;13.55;100.00
74524;BME280;63074;44.696;10.358;2023-11-21T03:25:58;99300.78;;;15.57;100.00
74524;BME280;63074;44.696;10.358;2023-11-21T03:28:26;99301.91;;;13.13;100.00
74524;BME280;63074;44.696;10.358;2023-11-21T03:30:53;99304.34;;;13.35;100.00
74524;BME280;63074;44.696;10.358;2023-11-21T03:33:19;99300.31;;;16.21;100.00
74524;BME280;63074;44.696;10.358;2023-11-21T03:35:45;99294.25;;;16.48;100.00
74524;BME280;63074;44.696;10.358;2023-11-21T03:38:12;99293.38;;;17.09;100.00
74524;BME280;63074;44.696;10.358;2023-11-21T03:40:38;99285.22;;;17.42;100.00
74524;BME280;63074;44.696;10.358;2023-11-21T03:43:05;99280.28;;;16.79;100.00
74524;BME280;63074;44.696;10.358;2023-11-21T03:45:32;99283.50;;;16.43;100.00
74524;BME280;63074;44.696;10.358;2023-11-21T03:47:58;99292.44;;;16.44;100.00
74524;BME280;63074;44.696;10.358;2023-11-21T03:50:28;99294.59;;;15.80;100.00
74524;BME280;63074;44.696;10.358;2023-11-21T03:52:54;99282.91;;;17.03;100.00
74524;BME280;63074;44.696;10.358;2023-11-21T03:55:20;99291.94;;;13.39;100.00
74524;BME280;63074;44.696;10.358;2023-11-21T03:57:46;99291.88;;;14.89;100.00
74524;BME280;63074;44.696;10.358;2023-11-21T04:00:13;99297.06;;;13.41;100.00
74524;BME280;63074;44.696;10.358;2023-11-21T04:02:39;99285.63;;;15.27;100.00
74524;BME280;63074;44.696;10.358;2023-11-21T04:05:06;99296.88;;;14.12;100.00
74524;BME280;63074;44.696;10.358;2023-11-21T04:07:33;99304.28;;;13.81;100.00
74524;BME280;63074;44.696;10.358;2023-11-21T04:10:00;99306.75;;;13.57;100.00
74524;BME280;63074;44.696;10.358;2023-11-21T04:12:26;99296.06;;;15.92;100.00
74524;BME280;63074;44.696;10.358;2023-11-21T04:14:52;99289.88;;;14.65;100.00
74524;BME280;63074;44.696;10.358;2023-11-21T04:17:19;99294.22;;;14.07;100.00
74524;BME280;63074;44.696;10.358;2023-11-21T04:19:46;99286.19;;;13.81;100.00
74524;BME280;63074;44.696;10.358;2023-11-21T04:22:12;99281.94;;;14.25;100.00
74524;BME280;63074;44.696;10.358;2023-11-21T04:24:39;99281.53;;;14.57;100.00
74524;BME280;63074;44.696;10.358;2023-11-21T04:27:05;99287.44;;;14.09;100.00
74524;BME280;63074;44.696;10.358;2023-11-21T04:29:31;99289.00;;;15.38;100.00
74524;BME280;63074;44.696;10.358;2023-11-21T04:31:57;99278.09;;;17.46;100.00
74524;BME280;63074;44.696;10.358;2023-11-21T04:34:23;99274.56;;;16.99;100.00
74524;BME280;63074;44.696;10.358;2023-11-21T04:36:50;99271.94;;;16.94;100.00
74524;BME280;63074;44.696;10.358;2023-11-21T04:39:16;99270.16;;;16.84;100.00
74524;BME280;63074;44.696;10.358;2023-11-21T04:41:43;99280.81;;;17.32;100.00
74524;BME280;63074;44.696;10.358;2023-11-21T04:44:09;99290.16;;;17.07;100.00
74524;BME280;63074;44.696;10.358;2023-11-21T04:46:35;99291.66;;;17.00;100.00
74524;BME280;63074;44.696;10.358;2023-11-21T04:49:01;99287.84;;;17.01;100.00
74524;BME280;63074;44.696;10.358;2023-11-21T04:51:28;99284.97;;;16.92;100.00
74524;BME280;63074;44.696;10.358;2023-11-21T04:53:54;99284.50;;;14.60;100.00
74524;BME280;63074;44.696;10.358;2023-11-21T04:56:20;99284.59;;;16.42;100.00
74524;BME280;63074;44.696;10.358;2023-11-21T04:58:46;99281.25;;;17.20;100.00
74524;BME280;63074;44.696;10.358;2023-11-21T05:01:12;99287.94;;;17.42;100.00
74524;BME280;63074;44.696;10.358;2023-11-21T05:03:39;99287.63;;;17.30;100.00
74524;BME280;63074;44.696;10.358;2023-11-21T05:06:05;99283.31;;;17.10;100.00
74524;BME280;63074;44.696;10.358;2023-11-21T05:08:31;99281.19;;;17.39;100.00
74524;BME280;63074;44.696;10.358;2023-11-21T05:10:58;99276.56;;;17.07;100.00
74524;BME280;63074;44.696;10.358;2023-11-21T05:13:24;99290.44;;;16.49;100.00
74524;BME280;63074;44.696;10.358;2023-11-21T05:15:54;99297.03;;;16.67;100.00
74524;BME280;63074;44.696;10.358;2023-11-21T05:18:21;99297.59;;;16.83;100.00
74524;BME280;63074;44.696;10.358;2023-11-21T05:20:48;99310.56;;;16.86;100.00
74524;BME280;63074;44.696;10.358;2023-11-21T05:23:14;99312.06;;;16.36;100.00
74524;BME280;63074;44.696;10.358;2023-11-21T05:25:40;99313.25;;;16.48;100.00
74524;BME280;63074;44.696;10.358;2023-11-21T05:28:07;99303.19;;;16.73;100.00
74524;BME280;63074;44.696;10.358;2023-11-21T05:30:33;99301.94;;;16.65;100.00
74524;BME280;63074;44.696;10.358;2023-11-21T05:33:00;99296.38;;;16.14;100.00
74524;BME280;63074;44.696;10.358;2023-11-21T05:35:26;99283.59;;;15.91;100.00
74524;BME280;63074;44.696;10.358;2023-11-21T05:37:52;99295.38;;;16.05;100.00
74524;BME280;63074;44.696;10.358;2023-11-21T05:40:18;99294.19;;;16.35;100.00
74524;BME280;63074;44.696;10.358;2023-11-21T05:42:45;99304.53;;;16.51;100.00
74524;BME280;63074;44.696;10.358;2023-11-21T05:45:11;99309.09;;;16.94;100.00
74524;BME280;63074;44.696;10.358;2023-11-21T05:47:39;99303.03;;;17.02;100.00
74524;BME280;63074;44.696;10.358;2023-11-21T05:50:10;99311.88;;;17.07;100.00
74524;BME280;63074;44.696;10.358;2023-11-21T05:52:41;99311.16;;;16.83;100.00
74524;BME280;63074;44.696;10.358;2023-11-21T05:55:07;99301.38;;;16.63;100.00
74524;BME280;63074;44.696;10.358;2023-11-21T05:57:34;99301.47;;;16.77;100.00
74524;BME280;63074;44.696;10.358;2023-11-21T06:00:08;99316.81;;;16.86;100.00
74524;BME280;63074;44.696;10.358;2023-11-21T06:02:42;99304.75;;;17.11;100.00
74524;BME280;63074;44.696;10.358;2023-11-21T06:05:08;99305.94;;;17.05;100.00
74524;BME280;63074;44.696;10.358;2023-11-21T06:07:35;99299.00;;;16.99;100.00
74524;BME280;63074;44.696;10.358;2023-11-21T06:10:05;99300.03;;;16.66;100.00
74524;BME280;63074;44.696;10.358;2023-11-21T06:12:35;99300.28;;;16.45;100.00
74524;BME280;63074;44.696;10.358;2023-11-21T06:15:05;99299.06;;;16.94;100.00
74524;BME280;63074;44.696;10.358;2023-11-21T06:17:34;99299.22;;;16.23;100.00
74524;BME280;63074;44.696;10.358;2023-11-21T06:20:04;99302.50;;;16.81;100.00
74524;BME280;63074;44.696;10.358;2023-11-21T06:22:38;99309.00;;;16.61;100.00
74524;BME280;63074;44.696;10.358;2023-11-21T06:25:06;99304.69;;;16.60;100.00
74524;BME280;63074;44.696;10.358;2023-11-21T06:27:34;99302.50;;;16.43;100.00
74524;BME280;63074;44.696;10.358;2023-11-21T06:30:00;99302.03;;;16.36;100.00
74524;BME280;63074;44.696;10.358;2023-11-21T06:32:27;99304.69;;;16.17;100.00
74524;BME280;63074;44.696;10.358;2023-11-21T06:34:56;99304.81;;;15.60;100.00
74524;BME280;63074;44.696;10.358;2023-11-21T06:37:26;99297.00;;;15.58;100.00
74524;BME280;63074;44.696;10.358;2023-11-21T06:39:53;99294.41;;;15.96;100.00
74524;BME280;63074;44.696;10.358;2023-11-21T06:42:19;99290.78;;;15.24;100.00
74524;BME280;63074;44.696;10.358;2023-11-21T06:44:46;99286.31;;;15.38;100.00
74524;BME280;63074;44.696;10.358;2023-11-21T06:47:12;99290.28;;;15.16;100.00
74524;BME280;63074;44.696;10.358;2023-11-21T06:49:39;99294.44;;;15.38;100.00
74524;BME280;63074;44.696;10.358;2023-11-21T06:52:05;99290.63;;;15.39;100.00
74524;BME280;63074;44.696;10.358;2023-11-21T06:54:32;99286.91;;;16.11;100.00
74524;BME280;63074;44.696;10.358;2023-11-21T06:56:58;99286.22;;;16.01;100.00
74524;BME280;63074;44.696;10.358;2023-11-21T06:59:25;99289.28;;;16.37;100.00
74524;BME280;63074;44.696;10.358;2023-11-21T07:01:51;99281.72;;;16.52;100.00
74524;BME280;63074;44.696;10.358;2023-11-21T07:04:17;99275.91;;;15.50;100.00
74524;BME280;63074;44.696;10.358;2023-11-21T07:06:44;99279.13;;;16.05;100.00
74524;BME280;63074;44.696;10.358;2023-11-21T07:09:10;99264.78;;;16.66;100.00
74524;BME280;63074;44.696;10.358;2023-11-21T07:11:37;99265.34;;;16.44;100.00
74524;BME280;63074;44.696;10.358;2023-11-21T07:14:07;99267.66;;;16.50;100.00
74524;BME280;63074;44.696;10.358;2023-11-21T07:16:38;99268.19;;;16.34;100.00
74524;BME280;63074;44.696;10.358;2023-11-21T07:19:04;99276.13;;;16.06;100.00
74524;BME280;63074;44.696;10.358;2023-11-21T07:21:32;99278.25;;;15.62;100.00
74524;BME280;63074;44.696;10.358;2023-11-21T07:24:00;99280.84;;;15.72;100.00
74524;BME280;63074;44.696;10.358;2023-11-21T07:26:27;99274.63;;;15.42;100.00
74524;BME280;63074;44.696;10.358;2023-11-21T07:28:54;99274.28;;;15.49;100.00
74524;BME280;63074;44.696;10.358;2023-11-21T07:31:20;99272.97;;;15.17;100.00
74524;BME280;63074;44.696;10.358;2023-11-21T07:33:47;99269.25;;;15.66;100.00
74524;BME280;63074;44.696;10.358;2023-11-21T07:36:16;99280.19;;;15.27;100.00
74524;BME280;63074;44.696;10.358;2023-11-21T07:38:49;99282.94;;;15.51;100.00
74524;BME280;63074;44.696;10.358;2023-11-21T07:41:16;99284.72;;;15.32;100.00
74524;BME280;63074;44.696;10.358;2023-11-21T07:43:46;99274.47;;;15.00;100.00
74524;BME280;63074;44.696;10.358;2023-11-21T07:46:13;99270.91;;;15.04;100.00
74524;BME280;63074;44.696;10.358;2023-11-21T07:48:40;99268.94;;;15.15;100.00
74524;BME280;63074;44.696;10.358;2023-11-21T07:51:08;99268.53;;;14.98;100.00
74524;BME280;63074;44.696;10.358;2023-11-21T07:53:36;99272.81;;;14.70;100.00
74524;BME280;63074;44.696;10.358;2023-11-21T07:56:06;99272.59;;;15.29;100.00
74524;BME280;63074;44.696;10.358;2023-11-21T07:58:34;99271.16;;;15.08;100.00
74524;BME280;63074;44.696;10.358;2023-11-21T08:01:01;99264.97;;;15.31;100.00
74524;BME280;63074;44.696;10.358;2023-11-21T08:03:27;99257.75;;;15.27;100.00
74524;BME280;63074;44.696;10.358;2023-11-21T08:05:56;99261.28;;;15.51;100.00
74524;BME280;63074;44.696;10.358;2023-11-21T08:08:23;99263.03;;;15.37;100.00
74524;BME280;63074;44.696;10.358;2023-11-21T08:10:50;99254.47;;;15.59;100.00
74524;BME280;63074;44.696;10.358;2023-11-21T08:13:29;99258.84;;;15.78;100.00
74524;BME280;63074;44.696;10.358;2023-11-21T08:15:58;99260.09;;;16.10;100.00
74524;BME280;63074;44.696;10.358;2023-11-21T08:18:28;99252.94;;;16.75;100.00
74524;BME280;63074;44.696;10.358;2023-11-21T08:20:55;99262.84;;;17.17;100.00
74524;BME280;63074;44.696;10.358;2023-11-21T08:23:22;99266.69;;;16.65;100.00
74524;BME280;63074;44.696;10.358;2023-11-21T08:25:52;99264.38;;;23.67;100.00
74524;BME280;63074;44.696;10.358;2023-11-21T08:28:18;99268.88;;;20.51;100.00
74524;BME280;63074;44.696;10.358;2023-11-21T08:30:45;99266.72;;;19.74;100.00
74524;BME280;63074;44.696;10.358;2023-11-21T08:33:11;99277.69;;;19.82;100.00
74524;BME280;63074;44.696;10.358;2023-11-21T08:35:38;99274.81;;;20.62;100.00
74524;BME280;63074;44.696;10.358;2023-11-21T08:38:04;99270.34;;;20.66;100.00
74524;BME280;63074;44.696;10.358;2023-11-21T08:40:31;99272.91;;;20.62;100.00
74524;BME280;63074;44.696;10.358;2023-11-21T08:42:57;99272.91;;;21.05;100.00
74524;BME280;63074;44.696;10.358;2023-11-21T08:45:25;99282.53;;;20.60;100.00
74524;BME280;63074;44.696;10.358;2023-11-21T08:47:52;99287.81;;;19.91;100.00
74524;BME280;63074;44.696;10.358;2023-11-21T08:50:18;99288.91;;;19.81;100.00
74524;BME280;63074;44.696;10.358;2023-11-21T08:52:46;99293.63;;;20.06;100.00
74524;BME280;63074;44.696;10.358;2023-11-21T08:55:12;99289.22;;;19.26;100.00
74524;BME280;63074;44.696;10.358;2023-11-21T08:57:39;99291.09;;;20.10;100.00
74524;BME280;63074;44.696;10.358;2023-11-21T09:00:10;99291.81;;;19.31;100.00
74524;BME280;63074;44.696;10.358;2023-11-21T09:02:43;99291.97;;;19.04;100.00
74524;BME280;63074;44.696;10.358;2023-11-21T09:05:11;99295.28;;;19.23;100.00
74524;BME280;63074;44.696;10.358;2023-11-21T09:07:39;99298.00;;;19.76;100.00
74524;BME280;63074;44.696;10.358;2023-11-21T09:10:07;99293.03;;;19.47;100.00
74524;BME280;63074;44.696;10.358;2023-11-21T09:12:36;99301.88;;;18.64;100.00
74524;BME280;63074;44.696;10.358;2023-11-21T09:15:04;99292.84;;;18.27;100.00
74524;BME280;63074;44.696;10.358;2023-11-21T09:17:34;99293.03;;;18.44;100.00
74524;BME280;63074;44.696;10.358;2023-11-21T09:20:00;99292.69;;;18.73;100.00
74524;BME280;63074;44.696;10.358;2023-11-21T09:22:27;99290.28;;;19.16;100.00
74524;BME280;63074;44.696;10.358;2023-11-21T09:24:55;99292.13;;;18.85;100.00
74524;BME280;63074;44.696;10.358;2023-11-21T09:27:23;99293.34;;;19.46;100.00
74524;BME280;63074;44.696;10.358;2023-11-21T09:29:50;99296.75;;;19.82;100.00
74524;BME280;63074;44.696;10.358;2023-11-21T09:32:16;99292.66;;;20.02;100.00
74524;BME280;63074;44.696;10.358;2023-11-21T09:34:42;99294.41;;;19.98;100.00
74524;BME280;63074;44.696;10.358;2023-11-21T09:37:08;99289.78;;;19.68;100.00
74524;BME280;63074;44.696;10.358;2023-11-21T09:39:35;99298.28;;;19.44;100.00
74524;BME280;63074;44.696;10.358;2023-11-21T09:45:38;99291.41;;;19.69;100.00
74524;BME280;63074;44.696;10.358;2023-11-21T09:47:37;99286.38;;;19.53;100.00
74524;BME280;63074;44.696;10.358;2023-11-21T09:50:05;99281.31;;;19.69;100.00
74524;BME280;63074;44.696;10.358;2023-11-21T09:55:30;99263.97;;;19.34;100.00
74524;BME280;63074;44.696;10.358;2023-11-21T09:58:03;99268.41;;;19.92;100.00
74524;BME280;63074;44.696;10.358;2023-11-21T10:00:31;99260.69;;;19.94;100.00
74524;BME280;63074;44.696;10.358;2023-11-21T10:03:00;99259.16;;;19.40;100.00
74524;BME280;63074;44.696;10.358;2023-11-21T10:05:26;99252.16;;;19.47;100.00
74524;BME280;63074;44.696;10.358;2023-11-21T10:07:54;99241.16;;;20.01;100.00
74524;BME280;63074;44.696;10.358;2023-11-21T10:10:23;99241.41;;;19.73;100.00
74524;BME280;63074;44.696;10.358;2023-11-21T10:12:57;99235.44;;;19.40;100.00
74524;BME280;63074;44.696;10.358;2023-11-21T10:15:28;99228.56;;;19.74;100.00
74524;BME280;63074;44.696;10.358;2023-11-21T10:17:56;99220.84;;;20.15;100.00
74524;BME280;63074;44.696;10.358;2023-11-21T10:20:24;99217.31;;;21.01;100.00
74524;BME280;63074;44.696;10.358;2023-11-21T10:22:50;99219.19;;;20.06;100.00
74524;BME280;63074;44.696;10.358;2023-11-21T10:25:16;99217.47;;;20.18;100.00
74524;BME280;63074;44.696;10.358;2023-11-21T10:27:48;99207.47;;;21.09;100.00
74524;BME280;63074;44.696;10.358;2023-11-21T10:30:17;99214.91;;;20.82;100.00
74524;BME280;63074;44.696;10.358;2023-11-21T10:32:44;99210.38;;;21.21;100.00
74524;BME280;63074;44.696;10.358;2023-11-21T10:35:11;99211.69;;;20.89;100.00
74524;BME280;63074;44.696;10.358;2023-11-21T10:37:40;99209.38;;;21.34;100.00
74524;BME280;63074;44.696;10.358;2023-11-21T10:40:08;99212.66;;;21.02;100.00
74524;BME280;63074;44.696;10.358;2023-11-21T10:42:38;99213.38;;;21.37;100.00
74524;BME280;63074;44.696;10.358;2023-11-21T10:45:05;99222.25;;;21.08;100.00
74524;BME280;63074;44.696;10.358;2023-11-21T10:47:39;99229.69;;;21.07;100.00
74524;BME280;63074;44.696;10.358;2023-11-21T10:50:06;99223.63;;;20.76;100.00
74524;BME280;63074;44.696;10.358;2023-11-21T10:52:37;99215.09;;;20.60;100.00
74524;BME280;63074;44.696;10.358;2023-11-21T10:55:17;99212.50;;;20.81;100.00
74524;BME280;63074;44.696;10.358;2023-11-21T10:57:46;99208.69;;;20.65;100.00
74524;BME280;63074;44.696;10.358;2023-11-21T11:00:15;99209.56;;;21.12;100.00
74524;BME280;63074;44.696;10.358;2023-11-21T11:02:42;99202.91;;;20.66;100.00
74524;BME280;63074;44.696;10.358;2023-11-21T11:05:09;99210.56;;;20.90;100.00
74524;BME280;63074;44.696;10.358;2023-11-21T11:07:39;99217.66;;;20.91;100.00
74524;BME280;63074;44.696;10.358;2023-11-21T11:10:09;99212.69;;;20.59;100.00
74524;BME280;63074;44.696;10.358;2023-11-21T11:12:41;99209.59;;;20.95;100.00
74524;BME280;63074;44.696;10.358;2023-11-21T11:15:08;99214.63;;;20.58;100.00
74524;BME280;63074;44.696;10.358;2023-11-21T11:17:38;99218.22;;;20.02;100.00
74524;BME280;63074;44.696;10.358;2023-11-21T11:20:05;99212.22;;;20.48;100.00
74524;BME280;63074;44.696;10.358;2023-11-21T11:29:33;99216.03;;;19.64;100.00
74524;BME280;63074;44.696;10.358;2023-11-21T11:31:46;99218.13;;;20.33;100.00
74524;BME280;63074;44.696;10.358;2023-11-21T11:34:35;99209.13;;;20.93;100.00
74524;BME280;63074;44.696;10.358;2023-11-21T11:37:05;99205.78;;;20.78;100.00
74524;BME280;63074;44.696;10.358;2023-11-21T11:39:42;99200.16;;;20.66;100.00
74524;BME280;63074;44.696;10.358;2023-11-21T11:42:13;99200.13;;;20.92;100.00
74524;BME280;63074;44.696;10.358;2023-11-21T11:47:31;99209.44;;;21.00;100.00
74524;BME280;63074;44.696;10.358;2023-11-21T11:50:09;99210.72;;;20.94;100.00
74524;BME280;63074;44.696;10.358;2023-11-21T11:53:15;99208.81;;;20.34;100.00
74524;BME280;63074;44.696;10.358;2023-11-21T11:55:41;99208.16;;;20.97;100.00
74524;BME280;63074;44.696;10.358;2023-11-21T11:58:08;99210.25;;;20.14;100.00
74524;BME280;63074;44.696;10.358;2023-11-21T12:00:35;99210.88;;;20.11;100.00
74524;BME280;63074;44.696;10.358;2023-11-21T12:03:05;99208.16;;;20.97;100.00
74524;BME280;63074;44.696;10.358;2023-11-21T12:05:34;99207.22;;;20.84;100.00
74524;BME280;63074;44.696;10.358;2023-11-21T12:08:08;99206.06;;;21.03;100.00
74524;BME280;63074;44.696;10.358;2023-11-21T12:10:38;99216.16;;;21.11;100.00
74524;BME280;63074;44.696;10.358;2023-11-21T12:13:09;99216.69;;;20.87;100.00
74524;BME280;63074;44.696;10.358;2023-11-21T12:15:38;99215.34;;;21.10;100.00
74524;BME280;63074;44.696;10.358;2023-11-21T12:18:06;99209.28;;;20.87;100.00
74524;BME280;63074;44.696;10.358;2023-11-21T12:20:32;99213.25;;;21.16;100.00
74524;BME280;63074;44.696;10.358;2023-11-21T12:23:05;99212.19;;;20.91;100.00
74524;BME280;63074;44.696;10.358;2023-11-21T12:25:32;99209.59;;;21.03;100.00
74524;BME280;63074;44.696;10.358;2023-11-21T12:28:00;99211.84;;;20.93;100.00
74524;BME280;63074;44.696;10.358;2023-11-21T12:30:28;99214.47;;;20.63;100.00
74524;BME280;63074;44.696;10.358;2023-11-21T12:32:57;99215.75;;;20.74;100.00
74524;BME280;63074;44.696;10.358;2023-11-21T12:35:28;99220.56;;;20.43;100.00
74524;BME280;63074;44.696;10.358;2023-11-21T12:37:56;99221.31;;;20.26;100.00
74524;BME280;63074;44.696;10.358;2023-11-21T12:40:26;99225.72;;;20.44;100.00
74524;BME280;63074;44.696;10.358;2023-11-21T12:42:55;99219.50;;;19.96;100.00
74524;BME280;63074;44.696;10.358;2023-11-21T12:47:49;99213.41;;;19.99;100.00
74524;BME280;63074;44.696;10.358;2023-11-21T12:50:19;99194.63;;;19.88;100.00
74524;BME280;63074;44.696;10.358;2023-11-21T12:52:50;99194.50;;;20.28;100.00
74524;BME280;63074;44.696;10.358;2023-11-21T12:55:22;99194.34;;;20.07;100.00
74524;BME280;63074;44.696;10.358;2023-11-21T12:57:53;99189.16;;;19.80;100.00
74524;BME280;63074;44.696;10.358;2023-11-21T13:00:40;99182.44;;;19.86;100.00
74524;BME280;63074;44.696;10.358;2023-11-21T13:03:09;99175.94;;;19.56;100.00